Condon, Montana
Current Conditions -  °F | °C
As of 12:53 PM on Friday 21 Nov 2014 (Local Time) from KMSO Reporting Station
Haze Haze  
Wind Chill: 33°   Ceiling: 5000
Heat Index: 33°   Visibility: 5mi
Dew Point: 28°   Wind: 3mph
Humidity: 82%   Direction: 300°WNW
Pressure: 29.89"   Gusts: NA
Location:  47.53°N, 113.71°W
Report Text: KMSO 211953Z 30003KT 5SM HZ OVC050 01/M02 A2989 RMK AO2 SLP151 T00061022
Loading
Personal Weather Stations






























Interactive Weather Map New forecast layout! Learn more

10-Day Weather Forecast

Advertisements
Track Severe Weather on mobile